createdAt,value
2023-04-10T00:00:46.425Z,191.66
2023-04-10T00:01:46.471Z,190.00
2023-04-10T00:02:46.502Z,193.21
2023-04-10T00:03:46.544Z,188.11
2023-04-10T00:04:46.443Z,179.35
2023-04-10T00:05:46.401Z,181.07
2023-04-10T00:06:46.358Z,180.25
2023-04-10T00:07:46.364Z,179.55
2023-04-10T00:08:46.377Z,169.86
2023-04-10T00:09:46.339Z,162.03
2023-04-10T00:10:46.312Z,156.68
2023-04-10T00:11:46.346Z,154.36
2023-04-10T00:12:46.387Z,148.42
2023-04-10T00:13:46.393Z,144.74
2023-04-10T00:14:46.402Z,142.48
2023-04-10T00:15:46.432Z,139.28
2023-04-10T00:16:46.505Z,137.64
2023-04-10T00:17:46.462Z,144.48
2023-04-10T00:18:46.444Z,151.08
2023-04-10T00:19:46.481Z,157.39
2023-04-10T00:20:46.465Z,164.32
2023-04-10T00:21:46.491Z,162.29
2023-04-10T00:22:46.497Z,158.23
2023-04-10T00:23:46.481Z,158.44
2023-04-10T00:24:46.481Z,157.39
2023-04-10T00:25:46.493Z,153.72
2023-04-10T00:26:46.493Z,157.13
2023-04-10T00:27:46.503Z,160.38
2023-04-10T00:28:46.510Z,158.82
2023-04-10T00:29:46.525Z,154.80
2023-04-10T00:30:46.547Z,151.59
2023-04-10T00:31:46.598Z,153.67
2023-04-10T00:32:46.613Z,158.18
2023-04-10T00:33:46.570Z,162.30
2023-04-10T00:34:46.591Z,164.69
2023-04-10T00:35:46.630Z,170.50
2023-04-10T00:36:46.609Z,175.33
2023-04-10T00:37:46.613Z,178.76
2023-04-10T00:38:46.639Z,187.56
2023-04-10T00:39:46.656Z,191.15
2023-04-10T00:40:46.710Z,194.76
2023-04-10T00:41:46.709Z,193.35
2023-04-10T00:42:46.697Z,194.58
2023-04-10T00:43:46.718Z,202.08
2023-04-10T00:44:46.718Z,195.79
2023-04-10T00:45:47.932Z,185.11
2023-04-10T00:46:46.699Z,172.05
2023-04-10T00:47:46.710Z,165.34
2023-04-10T00:48:46.660Z,168.03
2023-04-10T00:49:46.670Z,167.73
2023-04-10T00:50:46.677Z,164.12
2023-04-10T00:51:46.652Z,166.06
2023-04-10T00:52:46.634Z,169.79
2023-04-10T00:53:46.672Z,171.79
2023-04-10T00:54:46.624Z,177.93
2023-04-10T00:55:46.635Z,184.00
2023-04-10T00:56:46.597Z,193.67
2023-04-10T00:57:46.602Z,201.87
2023-04-10T00:58:46.596Z,207.40
2023-04-10T00:59:46.640Z,212.62
2023-04-10T01:00:46.629Z,212.72
2023-04-10T01:01:46.641Z,220.47
2023-04-10T01:02:46.695Z,222.33
2023-04-10T01:03:46.656Z,219.66
2023-04-10T01:04:46.563Z,218.71
2023-04-10T01:05:46.540Z,217.60
2023-04-10T01:06:46.608Z,204.85
2023-04-10T01:07:46.567Z,192.60
2023-04-10T01:08:46.539Z,189.57
2023-04-10T01:09:46.539Z,194.93
2023-04-10T01:10:46.565Z,198.59
2023-04-10T01:11:46.562Z,199.28
2023-04-10T01:12:46.493Z,202.23
2023-04-10T01:13:46.509Z,196.51
2023-04-10T01:14:46.503Z,175.87
2023-04-10T01:15:46.481Z,168.65
2023-04-10T01:16:46.595Z,170.49
2023-04-10T01:17:46.519Z,173.03
2023-04-10T01:18:46.499Z,170.95
2023-04-10T01:19:46.513Z,170.86
2023-04-10T01:20:46.481Z,170.09
2023-04-10T01:21:46.499Z,173.61
2023-04-10T01:22:46.488Z,177.62
2023-04-10T01:23:46.451Z,162.12
2023-04-10T01:24:46.444Z,150.03
2023-04-10T01:25:46.439Z,150.77
2023-04-10T01:26:46.442Z,155.75
2023-04-10T01:27:46.424Z,159.32
2023-04-10T01:28:46.453Z,157.13
2023-04-10T01:29:46.419Z,161.68
2023-04-10T01:30:46.972Z,163.88
2023-04-10T01:31:46.425Z,172.06
2023-04-10T01:32:46.432Z,169.99
2023-04-10T01:33:46.367Z,180.84
2023-04-10T01:34:46.371Z,191.65
2023-04-10T01:35:46.381Z,206.33
2023-04-10T01:36:46.386Z,220.94
2023-04-10T01:37:46.388Z,234.14
2023-04-10T01:38:46.368Z,247.43
2023-04-10T01:39:46.310Z,256.06
2023-04-10T01:40:46.329Z,258.22
2023-04-10T01:41:46.319Z,255.36
2023-04-10T01:42:46.311Z,246.30
2023-04-10T01:43:46.290Z,239.54
2023-04-10T01:44:46.318Z,235.92
2023-04-10T01:45:46.303Z,236.89
2023-04-10T01:46:46.429Z,230.26
2023-04-10T01:47:46.338Z,223.68
2023-04-10T01:48:46.280Z,222.76
2023-04-10T01:49:46.279Z,223.31
2023-04-10T01:50:46.253Z,227.55
2023-04-10T01:51:46.379Z,236.84
2023-04-10T01:52:46.394Z,241.88
2023-04-10T01:53:46.487Z,246.17
2023-04-10T01:54:46.503Z,250.00
2023-04-10T01:55:46.518Z,247.73
2023-04-10T01:56:46.553Z,244.37
2023-04-10T01:57:46.679Z,245.74
2023-04-10T01:58:46.571Z,249.54
2023-04-10T01:59:46.634Z,245.59
2023-04-10T02:00:46.643Z,243.74
2023-04-10T02:01:46.751Z,244.48
2023-04-10T02:02:46.948Z,240.89
2023-04-10T02:03:46.875Z,245.64
2023-04-10T02:04:46.955Z,244.36
2023-04-10T02:05:46.878Z,243.46
2023-04-10T02:06:46.928Z,237.68
2023-04-10T02:07:46.988Z,238.65
2023-04-10T02:08:47.037Z,227.68
2023-04-10T02:09:47.985Z,219.58
2023-04-10T02:10:47.095Z,209.73
2023-04-10T02:11:47.080Z,192.95
2023-04-10T02:12:47.115Z,180.52
2023-04-10T02:13:47.136Z,175.48
2023-04-10T02:14:47.122Z,168.22
2023-04-10T02:15:47.205Z,158.13
2023-04-10T02:16:47.204Z,154.55
2023-04-10T02:17:47.308Z,159.18
2023-04-10T02:18:47.264Z,154.69
2023-04-10T02:19:47.277Z,154.11
2023-04-10T02:20:47.308Z,151.73
2023-04-10T02:21:47.386Z,150.68
2023-04-10T02:22:47.356Z,150.49
2023-04-10T02:23:47.395Z,150.85
2023-04-10T02:24:47.392Z,145.52
2023-04-10T02:25:47.440Z,141.05
2023-04-10T02:26:47.519Z,139.40
2023-04-10T02:27:47.492Z,144.26
2023-04-10T02:28:47.547Z,146.84
2023-04-10T02:29:47.554Z,140.77
2023-04-10T02:30:47.485Z,139.39
2023-04-10T02:31:47.656Z,138.43
2023-04-10T02:32:47.614Z,135.62
2023-04-10T02:33:47.639Z,132.21
2023-04-10T02:34:47.697Z,135.48
2023-04-10T02:35:47.678Z,145.18
2023-04-10T02:36:47.689Z,149.94
2023-04-10T02:37:47.724Z,153.27
2023-04-10T02:38:47.752Z,164.64
2023-04-10T02:39:47.805Z,170.19
2023-04-10T02:40:47.816Z,168.87
2023-04-10T02:41:47.938Z,166.15
2023-04-10T02:42:47.885Z,163.55
2023-04-10T02:43:47.902Z,164.35
2023-04-10T02:44:47.982Z,165.30
2023-04-10T02:45:47.999Z,161.64
2023-04-10T02:46:48.117Z,157.97
2023-04-10T02:47:48.160Z,156.38
2023-04-10T02:48:48.161Z,160.12
2023-04-10T02:49:48.218Z,163.94
2023-04-10T02:50:48.247Z,168.78
2023-04-10T02:51:48.293Z,180.39
2023-04-10T02:52:48.377Z,184.67
2023-04-10T02:53:56.170Z,194.96
2023-04-10T02:54:48.682Z,195.33
2023-04-10T02:55:48.360Z,195.99
2023-04-10T02:56:48.361Z,196.00
2023-04-10T02:57:48.360Z,194.80
2023-04-10T02:58:48.338Z,193.19
2023-04-10T02:59:48.354Z,195.11
2023-04-10T03:00:48.327Z,195.85
2023-04-10T03:01:48.446Z,188.17
2023-04-10T03:02:48.457Z,173.91
2023-04-10T03:03:48.433Z,165.25
2023-04-10T03:04:48.390Z,171.23
2023-04-10T03:05:48.300Z,204.62
2023-04-10T03:06:48.291Z,219.29
2023-04-10T03:07:48.331Z,231.95
2023-04-10T03:08:48.368Z,240.97
2023-04-10T03:09:48.445Z,250.82
2023-04-10T03:10:48.490Z,250.11
2023-04-10T03:11:48.563Z,251.27
2023-04-10T03:12:48.640Z,250.54
2023-04-10T03:13:48.725Z,250.13
2023-04-10T03:14:48.765Z,247.07
2023-04-10T03:15:48.840Z,248.67
2023-04-10T03:16:49.928Z,251.08
2023-04-10T03:17:48.964Z,249.90
2023-04-10T03:18:48.970Z,248.66
2023-04-10T03:19:49.053Z,245.82
2023-04-10T03:20:49.107Z,240.82
2023-04-10T03:21:49.154Z,239.10
2023-04-10T03:22:49.222Z,237.50
2023-04-10T03:23:49.246Z,235.36
2023-04-10T03:24:49.292Z,233.96
2023-04-10T03:25:49.386Z,233.85
2023-04-10T03:26:49.433Z,232.99
2023-04-10T03:27:49.477Z,231.02
2023-04-10T03:28:49.540Z,232.47
2023-04-10T03:29:49.589Z,230.52
2023-04-10T03:30:49.626Z,231.48
2023-04-10T03:31:49.725Z,230.39
2023-04-10T03:32:49.723Z,234.67
2023-04-10T03:33:49.803Z,240.49
2023-04-10T03:34:49.775Z,245.89
2023-04-10T03:35:49.832Z,248.27
2023-04-10T03:36:49.903Z,250.00
2023-04-10T03:37:49.937Z,249.95
2023-04-10T03:38:49.905Z,250.10
2023-04-10T03:39:50.010Z,249.17
2023-04-10T03:40:50.053Z,247.54
2023-04-10T03:41:50.094Z,248.96
2023-04-10T03:44:10.282Z,25.00
2023-04-10T03:45:10.278Z,25.00
2023-04-10T03:46:10.236Z,25.00
2023-04-10T03:47:10.283Z,25.00
2023-04-10T03:48:10.242Z,25.00
2023-04-10T03:49:10.251Z,21.85
2023-04-10T03:50:10.229Z,25.20
2023-04-10T03:51:10.226Z,28.39
2023-04-10T03:52:10.228Z,69.85
2023-04-10T03:53:10.247Z,124.82
2023-04-10T03:54:10.215Z,167.17
2023-04-10T03:55:10.189Z,190.87
2023-04-10T03:56:10.183Z,204.95
2023-04-10T03:57:10.197Z,177.87
2023-04-10T03:58:10.175Z,137.72
2023-04-10T03:59:10.207Z,90.92
2023-04-10T04:00:10.123Z,64.04
2023-04-10T04:01:10.191Z,54.30
2023-04-10T04:02:10.325Z,25.00
2023-04-10T04:03:10.350Z,14.55
2023-04-10T04:04:10.246Z,30.09
2023-04-10T04:05:10.170Z,36.29
2023-04-10T04:06:10.127Z,76.76
2023-04-10T04:07:10.150Z,82.10
2023-04-10T04:08:10.106Z,114.98
2023-04-10T04:09:10.095Z,148.43
2023-04-10T04:10:10.120Z,186.27
2023-04-10T04:11:10.117Z,222.91
2023-04-10T04:12:10.135Z,249.38
2023-04-10T04:13:10.204Z,248.27
2023-04-10T04:14:10.129Z,243.01
2023-04-10T04:15:10.121Z,227.02
2023-04-10T04:16:10.199Z,217.35
2023-04-10T04:17:10.098Z,202.15
2023-04-10T04:18:10.189Z,153.43
2023-04-10T04:19:10.161Z,112.96
2023-04-10T04:20:10.239Z,95.10
2023-04-10T04:21:10.344Z,86.54
2023-04-10T04:22:10.389Z,68.77
2023-04-10T04:23:10.413Z,55.06
2023-04-10T04:24:10.442Z,53.34
2023-04-10T04:25:10.538Z,49.93
2023-04-10T04:26:10.565Z,52.97
2023-04-10T04:27:10.687Z,66.35
2023-04-10T04:28:10.786Z,90.61
2023-04-10T04:29:10.787Z,110.48
2023-04-10T04:30:10.870Z,129.22
2023-04-10T04:31:10.914Z,138.32
2023-04-10T04:32:11.039Z,148.14
2023-04-10T04:33:11.085Z,129.15
2023-04-10T04:34:11.127Z,117.42
2023-04-10T04:35:11.205Z,97.64
2023-04-10T04:36:11.292Z,86.40
2023-04-10T04:37:11.401Z,79.28
2023-04-10T04:38:11.361Z,77.09
2023-04-10T04:39:11.439Z,74.27
2023-04-10T04:40:11.325Z,63.33
2023-04-10T04:41:11.365Z,46.05
2023-04-10T04:42:11.397Z,41.79
2023-04-10T04:43:11.375Z,36.99
2023-04-10T04:44:11.368Z,33.40
2023-04-10T04:45:11.400Z,34.60
2023-04-10T04:46:11.369Z,39.86
2023-04-10T04:47:11.355Z,52.38
2023-04-10T04:48:11.388Z,65.82
2023-04-10T04:49:11.381Z,81.40
2023-04-10T04:50:11.487Z,108.15
2023-04-10T04:51:11.421Z,131.63
2023-04-10T04:52:11.450Z,148.69
2023-04-10T04:53:11.452Z,161.03
2023-04-10T04:54:11.441Z,179.23
2023-04-10T04:55:11.449Z,210.49
2023-04-10T04:56:11.462Z,241.87
2023-04-10T04:57:11.493Z,263.39
2023-04-10T04:58:11.470Z,272.92
2023-04-10T04:59:11.456Z,271.35
2023-04-10T05:01:40.714Z,25.00
2023-04-10T05:02:31.533Z,25.00
2023-04-10T05:03:31.630Z,25.00
2023-04-10T05:04:31.453Z,25.00
2023-04-10T05:05:31.451Z,25.00
2023-04-10T05:06:31.436Z,25.00
2023-04-10T05:07:31.761Z,25.00
2023-04-10T05:08:31.465Z,25.00
2023-04-10T05:09:31.427Z,25.00
2023-04-10T05:10:31.534Z,27.67
2023-04-10T05:11:31.421Z,25.00
2023-04-10T05:12:31.511Z,25.00
2023-04-10T05:13:31.398Z,25.00
2023-04-10T05:14:31.430Z,26.19
2023-04-10T05:15:31.372Z,10.91
2023-04-10T05:16:31.432Z,0.00
2023-04-10T05:17:31.452Z,0.00
2023-04-10T05:18:31.410Z,8.13
2023-04-10T05:19:31.390Z,10.63
2023-04-10T05:20:31.389Z,13.62
2023-04-10T05:21:31.457Z,27.81
2023-04-10T05:22:31.852Z,67.82
2023-04-10T05:23:31.354Z,74.52
2023-04-10T05:24:31.377Z,36.20
2023-04-10T05:25:31.371Z,25.00
2023-04-10T05:26:31.316Z,19.84
2023-04-10T05:27:31.380Z,22.21
2023-04-10T05:28:31.300Z,18.18
2023-04-10T05:29:31.311Z,27.13
2023-04-10T05:30:31.296Z,35.71
2023-04-10T05:31:31.748Z,25.67
2023-04-10T05:32:31.275Z,44.46
2023-04-10T05:33:31.573Z,49.10
2023-04-10T05:34:31.639Z,32.62
2023-04-10T05:35:31.271Z,26.97
2023-04-10T05:36:31.247Z,26.97
2023-04-10T05:37:31.273Z,20.83
2023-04-10T05:38:31.275Z,0.00
2023-04-10T05:39:31.272Z,0.00
2023-04-10T05:40:32.011Z,0.00
2023-04-10T05:41:31.661Z,18.76
2023-04-10T05:42:31.272Z,26.83
2023-04-10T05:43:31.203Z,12.27
2023-04-10T05:44:31.207Z,26.73
2023-04-10T05:48:10.761Z,25.00
2023-04-10T05:49:10.788Z,25.00
2023-04-10T05:50:10.766Z,25.00
2023-04-10T05:51:10.700Z,25.00
2023-04-10T05:52:10.730Z,25.00
2023-04-10T05:53:10.811Z,36.55
2023-04-10T05:54:10.791Z,63.52
2023-04-10T05:55:10.725Z,85.48
2023-04-10T05:56:10.725Z,114.81
2023-04-10T05:57:10.785Z,64.22
2023-04-10T05:58:10.739Z,13.26
2023-04-10T05:59:10.671Z,22.04
2023-04-10T06:00:10.682Z,50.22
2023-04-10T06:01:10.701Z,38.87
2023-04-10T06:02:10.781Z,55.87
2023-04-10T06:03:10.787Z,89.84
2023-04-10T06:04:10.906Z,71.58
2023-04-10T06:05:10.757Z,86.68
2023-04-10T06:06:10.684Z,63.65
2023-04-10T06:07:10.671Z,12.18
2023-04-10T06:08:10.677Z,3.17
2023-04-10T06:09:10.634Z,32.97
2023-04-10T06:10:10.705Z,6.87
2023-04-10T06:11:10.615Z,29.25
2023-04-10T06:12:10.625Z,47.82
2023-04-10T06:13:11.323Z,45.49
2023-04-10T06:14:10.626Z,8.27
2023-04-10T06:15:10.686Z,0.00
2023-04-10T06:16:10.804Z,0.00
2023-04-10T06:17:10.589Z,25.00
2023-04-10T06:18:10.609Z,0.00
2023-04-10T06:19:10.571Z,0.00
2023-04-10T06:20:10.651Z,0.00
2023-04-10T06:21:10.543Z,0.00
2023-04-10T06:22:10.579Z,0.00
2023-04-10T06:23:10.614Z,0.00
2023-04-10T06:24:12.808Z,0.00
2023-04-10T06:25:10.600Z,0.00
2023-04-10T06:26:10.658Z,32.32
2023-04-10T06:27:10.654Z,121.42
2023-04-10T06:28:10.737Z,116.19
2023-04-10T06:29:10.750Z,158.37
2023-04-10T06:30:10.889Z,82.10
2023-04-10T06:31:10.812Z,65.29
2023-04-10T06:32:10.793Z,102.03
2023-04-10T06:33:10.877Z,46.01
2023-04-10T06:34:10.831Z,55.56
2023-04-10T06:35:10.865Z,105.67
2023-04-10T06:36:10.885Z,161.01
2023-04-10T06:37:10.879Z,145.65
2023-04-10T06:38:11.747Z,121.85
2023-04-10T06:39:10.951Z,87.25
2023-04-10T06:40:11.001Z,98.39
2023-04-10T06:41:11.008Z,96.03
2023-04-10T06:42:11.044Z,91.17
2023-04-10T06:43:11.140Z,3.18
2023-04-10T06:44:11.497Z,44.79
2023-04-10T06:45:11.300Z,77.74
2023-04-10T06:46:11.314Z,49.23
2023-04-10T06:47:11.372Z,15.25
2023-04-10T06:48:11.441Z,9.41
2023-04-10T06:49:11.461Z,20.01
2023-04-10T06:50:11.437Z,22.06
2023-04-10T06:51:11.426Z,28.41
2023-04-10T06:52:11.479Z,12.94
2023-04-10T06:53:11.515Z,17.32
2023-04-10T06:54:11.549Z,35.07
2023-04-10T06:55:11.589Z,25.19
2023-04-10T06:56:11.528Z,35.72
2023-04-10T06:57:11.647Z,0.00
2023-04-10T06:58:11.790Z,0.00
2023-04-10T06:59:12.496Z,0.00
2023-04-10T07:00:11.720Z,0.00
2023-04-10T07:01:11.799Z,27.14
2023-04-10T07:02:11.836Z,61.84
2023-04-10T07:03:11.878Z,54.42
2023-04-10T07:04:11.981Z,58.98
2023-04-10T07:05:11.897Z,62.19
2023-04-10T07:06:11.964Z,62.86
2023-04-10T07:07:11.997Z,44.03
2023-04-10T07:08:12.029Z,53.25
2023-04-10T07:09:12.022Z,25.91
2023-04-10T07:10:12.059Z,24.27
2023-04-10T07:11:12.089Z,34.90
2023-04-10T07:12:12.478Z,57.23
2023-04-10T07:13:12.226Z,27.80
2023-04-10T07:14:12.771Z,24.30
2023-04-10T07:15:12.352Z,25.00
2023-04-10T07:16:12.335Z,46.63
2023-04-10T07:17:12.387Z,43.72
2023-04-10T07:18:12.468Z,37.64
2023-04-10T07:19:12.469Z,21.58
2023-04-10T07:20:12.594Z,0.00
2023-04-10T07:21:12.572Z,0.00
2023-04-10T07:22:12.637Z,0.00
2023-04-10T07:23:12.711Z,0.00
2023-04-10T07:24:12.757Z,31.13
2023-04-10T07:25:12.865Z,61.57
2023-04-10T07:26:12.824Z,15.16
2023-04-10T07:27:12.871Z,20.41
2023-04-10T07:28:12.963Z,64.15
2023-04-10T07:29:12.910Z,48.09
2023-04-10T07:30:13.838Z,18.87
2023-04-10T07:31:13.027Z,0.00
2023-04-10T07:32:13.186Z,0.00
2023-04-10T07:33:13.373Z,0.00
2023-04-10T07:34:13.075Z,8.85
2023-04-10T07:35:13.138Z,41.73
2023-04-10T07:36:13.175Z,21.65
2023-04-10T07:37:13.143Z,39.54
2023-04-10T07:38:13.232Z,69.11
2023-04-10T07:39:13.345Z,60.92
2023-04-10T07:40:13.918Z,17.80
2023-04-10T07:41:13.346Z,0.00
2023-04-10T07:42:13.394Z,0.00
2023-04-10T07:43:13.439Z,0.00
2023-04-10T07:44:13.460Z,30.70
2023-04-10T07:45:13.559Z,4.65
2023-04-10T07:46:13.558Z,15.11
2023-04-10T07:47:13.582Z,77.71
2023-04-10T07:48:13.611Z,135.46
2023-04-10T07:49:13.644Z,118.18
2023-04-10T07:50:13.639Z,118.78
2023-04-10T07:51:14.689Z,112.74
2023-04-10T07:52:13.690Z,55.11
2023-04-10T07:53:13.763Z,60.85
2023-04-10T07:54:13.883Z,71.89
2023-04-10T07:55:13.906Z,103.86
2023-04-10T07:56:13.969Z,72.25
2023-04-10T07:57:14.003Z,57.74
2023-04-10T07:58:14.101Z,27.43
2023-04-10T07:59:14.099Z,50.33
2023-04-10T08:00:14.125Z,72.24
2023-04-10T08:01:14.124Z,91.55
2023-04-10T08:02:14.265Z,64.00
2023-04-10T08:03:14.300Z,63.12
2023-04-10T08:04:14.522Z,17.82
2023-04-10T08:05:14.392Z,51.78
2023-04-10T08:06:14.275Z,34.60
2023-04-10T08:07:14.329Z,13.04
2023-04-10T08:08:14.407Z,26.74
2023-04-10T08:09:14.365Z,0.00
2023-04-10T08:10:14.375Z,0.00
2023-04-10T08:11:14.766Z,0.00
2023-04-10T08:12:14.376Z,0.00
2023-04-10T08:13:14.448Z,0.00
2023-04-10T08:14:18.248Z,0.00
2023-04-10T08:15:14.375Z,0.00
2023-04-10T08:16:14.420Z,1.74
2023-04-10T08:17:14.471Z,0.00
2023-04-10T08:18:14.425Z,0.00
2023-04-10T08:19:14.444Z,0.00
2023-04-10T08:20:14.385Z,0.00
2023-04-10T08:21:14.336Z,40.58
2023-04-10T08:22:14.334Z,33.42
2023-04-10T08:23:20.478Z,84.13
2023-04-10T08:24:15.367Z,52.27
2023-04-10T08:25:14.353Z,33.13
2023-04-10T08:26:14.332Z,87.07
2023-04-10T08:27:14.314Z,13.58
2023-04-10T08:28:14.365Z,0.00
2023-04-10T08:29:14.370Z,0.00
2023-04-10T08:30:14.314Z,0.00
2023-04-10T08:31:14.380Z,0.00
2023-04-10T08:32:14.243Z,0.00
2023-04-10T08:33:14.299Z,21.62
2023-04-10T08:34:14.301Z,0.00
2023-04-10T08:35:14.263Z,20.91
2023-04-10T08:36:14.381Z,0.00
2023-04-10T08:37:14.382Z,0.00
2023-04-10T08:38:14.859Z,9.65
2023-04-10T08:39:14.512Z,36.19
2023-04-10T08:40:14.525Z,20.08
2023-04-10T08:41:14.532Z,59.99
2023-04-10T08:42:14.604Z,21.23
2023-04-10T08:43:14.618Z,5.58
2023-04-10T08:44:14.606Z,19.95
2023-04-10T08:45:15.276Z,0.00
2023-04-10T08:46:14.950Z,0.00
2023-04-10T08:47:14.690Z,0.00
2023-04-10T08:48:14.709Z,0.00
2023-04-10T08:49:14.767Z,22.31
2023-04-10T08:50:14.814Z,66.92
2023-04-10T08:51:19.462Z,96.41
2023-04-10T08:52:15.769Z,97.48
2023-04-10T08:53:14.765Z,109.92
2023-04-10T08:54:14.797Z,146.78
2023-04-10T08:55:14.777Z,187.56
2023-04-10T08:56:14.765Z,240.86
2023-04-10T08:57:14.739Z,250.00
2023-04-10T08:58:14.732Z,218.07
2023-04-10T08:59:14.792Z,208.17
2023-04-10T09:00:23.100Z,227.58
2023-04-10T09:01:15.732Z,227.84
2023-04-10T09:02:14.798Z,165.40
2023-04-10T09:03:14.968Z,161.51
2023-04-10T09:04:14.841Z,218.26
2023-04-10T09:05:14.679Z,206.63
2023-04-10T09:06:14.672Z,225.73
2023-04-10T09:07:14.688Z,284.86
2023-04-10T09:08:14.693Z,284.75
2023-04-10T09:09:14.694Z,260.48
2023-04-10T09:10:14.723Z,256.36
2023-04-10T09:11:14.625Z,240.01
2023-04-10T09:12:14.620Z,236.94
2023-04-10T09:13:14.598Z,244.54
2023-04-10T09:14:14.624Z,259.82
2023-04-10T09:15:14.640Z,149.67
2023-04-10T09:16:14.620Z,60.30
2023-04-10T09:17:14.642Z,29.52
2023-04-10T09:18:14.589Z,0.00
2023-04-10T09:19:14.649Z,0.00
2023-04-10T09:20:14.668Z,0.00
2023-04-10T09:21:14.713Z,10.21
2023-04-10T09:22:14.763Z,30.06
2023-04-10T09:23:14.698Z,53.72
2023-04-10T09:24:14.916Z,62.78
2023-04-10T09:25:14.791Z,54.08
2023-04-10T09:26:14.894Z,41.11
2023-04-10T09:27:14.930Z,52.53
2023-04-10T09:28:14.907Z,28.46
2023-04-10T09:29:14.946Z,21.71
2023-04-10T09:30:14.887Z,31.68
2023-04-10T09:31:14.969Z,22.08
2023-04-10T09:32:15.022Z,29.68
2023-04-10T09:33:15.055Z,40.27
2023-04-10T09:34:15.078Z,67.56
2023-04-10T09:35:15.175Z,87.47
2023-04-10T09:36:15.379Z,87.33
2023-04-10T09:37:15.182Z,107.44
2023-04-10T09:38:15.193Z,124.65
2023-04-10T09:39:15.259Z,148.98
2023-04-10T09:40:15.326Z,159.51
2023-04-10T09:41:15.227Z,155.96
2023-04-10T09:42:15.342Z,160.92
2023-04-10T09:43:15.323Z,158.89
2023-04-10T09:44:15.384Z,186.71
2023-04-10T09:45:15.411Z,164.70
2023-04-10T09:46:15.408Z,168.43
2023-04-10T09:47:15.402Z,167.02
2023-04-10T09:48:15.470Z,145.09
2023-04-10T09:49:15.480Z,151.89
2023-04-10T09:50:15.465Z,175.94
2023-04-10T09:51:15.501Z,177.83
2023-04-10T09:52:15.513Z,181.98
2023-04-10T09:53:15.523Z,206.34
2023-04-10T09:54:15.578Z,208.73
2023-04-10T09:55:15.602Z,221.91
2023-04-10T09:56:15.520Z,219.32
2023-04-10T09:57:15.515Z,207.01
2023-04-10T09:58:15.559Z,225.35
2023-04-10T09:59:15.562Z,199.78
2023-04-10T10:00:15.614Z,216.25
2023-04-10T10:01:15.648Z,242.39
2023-04-10T10:02:15.771Z,222.17
2023-04-10T10:03:15.840Z,219.53
2023-04-10T10:04:15.917Z,225.59
2023-04-10T10:05:15.896Z,195.69
2023-04-10T10:06:15.901Z,210.30
2023-04-10T10:07:16.027Z,229.19
2023-04-10T10:08:16.038Z,253.99
2023-04-10T10:09:16.084Z,246.46
2023-04-10T10:10:16.133Z,248.93
2023-04-10T10:11:16.202Z,194.41
2023-04-10T10:12:16.198Z,214.69
2023-04-10T10:13:16.168Z,215.82
2023-04-10T10:14:16.183Z,210.41
2023-04-10T10:15:16.168Z,218.72
2023-04-10T10:16:16.204Z,202.67
2023-04-10T10:17:16.168Z,210.63
2023-04-10T10:18:16.192Z,194.88
2023-04-10T10:19:16.246Z,148.58
2023-04-10T10:20:16.188Z,152.64
2023-04-10T10:21:16.232Z,179.97
2023-04-10T10:22:16.864Z,178.02
2023-04-10T10:23:16.331Z,180.30
2023-04-10T10:24:16.408Z,195.61
2023-04-10T10:25:16.339Z,198.77
2023-04-10T10:26:16.376Z,198.20
2023-04-10T10:27:16.393Z,171.36
2023-04-10T10:28:16.458Z,188.92
2023-04-10T10:29:16.537Z,201.75
2023-04-10T10:30:28.689Z,195.92
2023-04-10T10:31:17.624Z,193.65
2023-04-10T10:32:16.501Z,197.47
2023-04-10T10:33:16.492Z,204.09
2023-04-10T10:34:16.549Z,182.46
2023-04-10T10:35:16.506Z,199.90
2023-04-10T10:36:16.506Z,181.73
2023-04-10T10:37:16.437Z,184.57
2023-04-10T10:38:16.442Z,219.62
2023-04-10T10:39:16.474Z,219.81
2023-04-10T10:40:16.497Z,219.44
2023-04-10T10:41:16.434Z,239.06
2023-04-10T10:42:16.414Z,229.25
2023-04-10T10:43:16.471Z,210.50
2023-04-10T10:44:16.427Z,214.45
2023-04-10T10:45:16.378Z,231.44
2023-04-10T10:46:16.787Z,246.16
2023-04-10T10:47:16.438Z,269.99
2023-04-10T10:48:16.399Z,222.07
2023-04-10T10:49:16.361Z,179.51
2023-04-10T10:50:16.410Z,174.92
2023-04-10T10:51:16.353Z,191.94
2023-04-10T10:52:16.388Z,182.20
2023-04-10T10:53:16.356Z,182.22
2023-04-10T10:54:16.338Z,178.93
2023-04-10T10:55:16.326Z,163.35
2023-04-10T10:56:16.327Z,171.28
2023-04-10T10:57:16.870Z,172.62
2023-04-10T10:58:16.313Z,160.92
2023-04-10T10:59:16.370Z,156.91
2023-04-10T11:00:16.427Z,155.10
2023-04-10T11:01:16.301Z,160.91
2023-04-10T11:02:16.328Z,156.52
2023-04-10T11:03:16.454Z,165.07
2023-04-10T11:04:16.338Z,154.04
2023-04-10T11:05:16.308Z,155.54
2023-04-10T11:06:16.268Z,160.38
2023-04-10T11:07:16.239Z,180.22
2023-04-10T11:08:16.247Z,185.00
2023-04-10T11:09:16.351Z,167.10
2023-04-10T11:10:16.197Z,148.45
2023-04-10T11:11:16.396Z,176.97
2023-04-10T11:12:16.218Z,187.70
2023-04-10T11:13:16.347Z,194.43
2023-04-10T11:14:16.359Z,201.10
2023-04-10T11:15:16.338Z,157.97
2023-04-10T11:16:16.373Z,140.05
2023-04-10T11:17:16.382Z,148.00
2023-04-10T11:18:16.391Z,188.37
2023-04-10T11:19:17.019Z,163.28
2023-04-10T11:20:16.377Z,179.55
2023-04-10T11:21:16.414Z,157.86
2023-04-10T11:22:16.507Z,153.82
2023-04-10T11:23:16.431Z,162.90
2023-04-10T11:24:16.462Z,165.35
2023-04-10T11:25:16.451Z,213.70
2023-04-10T11:26:16.562Z,210.71
2023-04-10T11:27:16.568Z,183.44
2023-04-10T11:28:16.576Z,177.58
2023-04-10T11:29:16.675Z,162.69
2023-04-10T11:30:16.679Z,182.87
2023-04-10T11:31:16.689Z,159.35
2023-04-10T11:32:17.024Z,151.14
2023-04-10T11:33:16.716Z,178.18
2023-04-10T11:34:16.812Z,206.78
2023-04-10T11:35:16.718Z,197.25
2023-04-10T11:36:16.798Z,199.81
2023-04-10T11:37:16.820Z,190.78
2023-04-10T11:38:16.826Z,216.72
2023-04-10T11:39:16.868Z,224.15
2023-04-10T11:40:16.849Z,201.41
2023-04-10T11:41:16.935Z,194.25
2023-04-10T11:42:16.972Z,197.12
2023-04-10T11:43:17.066Z,178.53
2023-04-10T11:44:17.019Z,215.58
2023-04-10T11:45:17.091Z,221.19
2023-04-10T11:46:17.158Z,232.03
2023-04-10T11:47:17.181Z,219.06
2023-04-10T11:48:17.169Z,210.01
2023-04-10T11:49:17.222Z,202.64
2023-04-10T11:50:17.223Z,207.87
2023-04-10T11:51:17.228Z,175.80
2023-04-10T11:52:17.268Z,192.70
2023-04-10T11:53:17.251Z,210.53
2023-04-10T11:54:17.314Z,209.43
2023-04-10T11:55:17.360Z,213.68
2023-04-10T11:56:17.339Z,179.32
2023-04-10T11:57:17.442Z,183.64
2023-04-10T11:58:17.444Z,176.71
2023-04-10T11:59:17.461Z,219.26
2023-04-10T12:00:17.500Z,183.85
2023-04-10T12:01:17.510Z,242.56
2023-04-10T12:02:17.682Z,250.35
2023-04-10T12:03:17.700Z,212.03
2023-04-10T12:04:17.923Z,209.43
2023-04-10T12:05:17.779Z,205.71
2023-04-10T12:06:17.658Z,226.18
2023-04-10T12:07:17.713Z,226.21
2023-04-10T12:08:17.754Z,202.83
2023-04-10T12:09:17.772Z,197.14
2023-04-10T12:10:17.770Z,180.95
2023-04-10T12:11:17.810Z,180.43
2023-04-10T12:12:17.852Z,201.98
2023-04-10T12:13:17.900Z,171.90
2023-04-10T12:14:17.940Z,157.60
2023-04-10T12:15:17.913Z,150.31
2023-04-10T12:16:18.039Z,147.98
2023-04-10T12:17:17.944Z,168.09
2023-04-10T12:18:17.991Z,177.70
2023-04-10T12:19:18.109Z,174.79
2023-04-10T12:20:17.990Z,191.82
2023-04-10T12:21:18.007Z,220.59
2023-04-10T12:22:18.127Z,211.09
2023-04-10T12:23:18.191Z,216.81
2023-04-10T12:24:18.237Z,184.13
2023-04-10T12:25:18.252Z,188.16
2023-04-10T12:26:18.289Z,196.31
2023-04-10T12:27:18.331Z,206.74
2023-04-10T12:28:18.363Z,228.69
2023-04-10T12:29:18.367Z,219.09
2023-04-10T12:30:18.428Z,180.00
2023-04-10T12:31:18.437Z,201.62
2023-04-10T12:32:18.517Z,233.91
2023-04-10T12:33:18.438Z,212.60
2023-04-10T12:34:18.563Z,206.18
2023-04-10T12:35:18.607Z,144.80
2023-04-10T12:36:18.633Z,137.62
2023-04-10T12:37:18.708Z,162.66
2023-04-10T12:38:18.739Z,140.19
2023-04-10T12:39:18.710Z,149.74
2023-04-10T12:40:18.770Z,156.93
2023-04-10T12:41:18.777Z,171.13
2023-04-10T12:42:18.785Z,115.16
2023-04-10T12:43:18.804Z,166.05
2023-04-10T12:44:18.942Z,147.60
2023-04-10T12:45:18.957Z,160.80